3I2

Mason County Airport

Point Pleasant, West Virginia, USA
METAR K3I2 210935Z AUTO 00000KT 10SM CLR 00/M03 A3046 RMK AO2 T00031035
Observed Flight Rules
Apr-21 @ 09:35 UTC (10 minutes ago) Visual Flight Rules
Visibility Clouds
10 miles
  • Clear skies
Temperatures Readings
Current 0°C / 32°F
Dewpoint -4°C / 25°F
Humidity 75%
Altimeter 30.46" Hg
Pressure 1031 hPa
Elevation 196
METAR K3I2 210935Z AUTO 00000KT 10SM CLR 00/M03 A3046 RMK AO2 T00031035
Observed Flight Rules
Apr-21 @ 09:35 UTC
(10 minutes ago)
VFR
Clouds
  • Clear skies
Temperature Dewpoint
0°C / 32°F -4°C / 25°F
Humidity Altimeter Pressure
75% 30.46" Hg 1031 hPa